COOK73 ZBLA-RJOC
Flight info
| Callsign | COOK73 |
|---|---|
| Flight time | N/A |
| Altitude | 27000 |
| Route | TEP09D TEPOD B451 UGABI W39 YNJ R224 VASRO/K0815F270 M825 KANSU/N0453F270 B332 IGRAS Y332 MIHOU |
| Aircraft | C25C/M-SDE2E3FGHRWXY/LB1 |
Departure
| Time | N/A |
|---|---|
| Airport | Hulunbuir Hailar Airport (ZBLA) |
Arrival
| Time | 2026-04-28 01:04 |
|---|---|
| Airport | Izumo Enmusubi Airport (RJOC) |
| Time | Latitude | Longitude | Altitude | Speed | Heading |
|---|---|---|---|---|---|
| 2026-04-27 23:43 | 43.22097 | 129.19710 | 27029 ft | 419 kts | 151° |
| 2026-04-27 23:44 | 43.19499 | 129.21671 | 27030 ft | 421 kts | 150° |
| 2026-04-27 23:44 | 43.16928 | 129.23628 | 27027 ft | 423 kts | 150° |
| 2026-04-27 23:44 | 43.14382 | 129.25560 | 27027 ft | 424 kts | 151° |
| 2026-04-27 23:44 | 43.11761 | 129.27538 | 27025 ft | 425 kts | 150° |
| 2026-04-27 23:45 | 43.09163 | 129.29496 | 27026 ft | 426 kts | 151° |
| 2026-04-27 23:45 | 43.06604 | 129.31432 | 27025 ft | 427 kts | 150° |
| 2026-04-27 23:45 | 43.03996 | 129.33398 | 27029 ft | 427 kts | 151° |
| 2026-04-27 23:45 | 43.01388 | 129.35363 | 27030 ft | 428 kts | 151° |
| 2026-04-27 23:46 | 42.98783 | 129.37320 | 27031 ft | 428 kts | 151° |
| 2026-04-27 23:46 | 42.96174 | 129.39285 | 27031 ft | 428 kts | 151° |
| 2026-04-27 23:46 | 42.93564 | 129.41241 | 27032 ft | 428 kts | 151° |
| 2026-04-27 23:46 | 42.90956 | 129.43199 | 27034 ft | 428 kts | 151° |
| 2026-04-27 23:47 | 42.88345 | 129.45145 | 27033 ft | 428 kts | 152° |
| 2026-04-27 23:47 | 42.85668 | 129.46914 | 27033 ft | 427 kts | 153° |
| 2026-04-27 23:47 | 42.83038 | 129.48805 | 27032 ft | 427 kts | 151° |
| 2026-04-27 23:47 | 42.80406 | 129.50697 | 27032 ft | 427 kts | 153° |
| 2026-04-27 23:48 | 42.77748 | 129.52511 | 27032 ft | 427 kts | 153° |
| 2026-04-27 23:48 | 42.75086 | 129.54312 | 27033 ft | 427 kts | 153° |
| 2026-04-27 23:48 | 42.72435 | 129.56144 | 27033 ft | 427 kts | 153° |
| 2026-04-27 23:48 | 42.69827 | 129.57960 | 27032 ft | 427 kts | 153° |
| 2026-04-27 23:49 | 42.67175 | 129.59785 | 27031 ft | 427 kts | 153° |
| 2026-04-27 23:49 | 42.64518 | 129.61606 | 27031 ft | 427 kts | 153° |
| 2026-04-27 23:49 | 42.61833 | 129.63446 | 27034 ft | 427 kts | 153° |
| 2026-04-27 23:49 | 42.59219 | 129.65248 | 27034 ft | 427 kts | 153° |
| 2026-04-27 23:50 | 42.56566 | 129.67064 | 27034 ft | 427 kts | 153° |
| 2026-04-27 23:50 | 42.53913 | 129.68883 | 27034 ft | 427 kts | 153° |
| 2026-04-27 23:50 | 42.51262 | 129.70695 | 27033 ft | 427 kts | 153° |
| 2026-04-27 23:50 | 42.48615 | 129.72506 | 27034 ft | 426 kts | 153° |
| 2026-04-27 23:51 | 42.45976 | 129.74349 | 27032 ft | 426 kts | 150° |
| 2026-04-27 23:51 | 42.43414 | 129.76379 | 27033 ft | 426 kts | 151° |
| 2026-04-27 23:51 | 42.40810 | 129.78292 | 27035 ft | 426 kts | 152° |
| 2026-04-27 23:51 | 42.38213 | 129.80221 | 27034 ft | 426 kts | 151° |
| 2026-04-27 23:52 | 42.35639 | 129.82205 | 27035 ft | 426 kts | 150° |
| 2026-04-27 23:52 | 42.33065 | 129.84185 | 27032 ft | 426 kts | 151° |
| 2026-04-27 23:52 | 42.30485 | 129.86139 | 27030 ft | 426 kts | 151° |
| 2026-04-27 23:52 | 42.27892 | 129.88091 | 27032 ft | 426 kts | 151° |
| 2026-04-27 23:53 | 42.25309 | 129.90049 | 27031 ft | 426 kts | 151° |
| 2026-04-27 23:53 | 42.22729 | 129.92011 | 27032 ft | 426 kts | 151° |
| 2026-04-27 23:53 | 42.20180 | 129.93936 | 27032 ft | 426 kts | 151° |
| 2026-04-27 23:53 | 42.17562 | 129.95915 | 27032 ft | 426 kts | 152° |
| 2026-04-27 23:54 | 42.15014 | 129.97832 | 27027 ft | 426 kts | 152° |
| 2026-04-27 23:54 | 42.12426 | 129.99789 | 27027 ft | 426 kts | 152° |
| 2026-04-27 23:54 | 42.09844 | 130.01733 | 27024 ft | 426 kts | 152° |
| 2026-04-27 23:54 | 42.07255 | 130.03682 | 27024 ft | 426 kts | 152° |
| 2026-04-27 23:55 | 42.04665 | 130.05630 | 27025 ft | 426 kts | 152° |
| 2026-04-27 23:55 | 42.02076 | 130.07574 | 27024 ft | 426 kts | 152° |
| 2026-04-27 23:55 | 41.99489 | 130.09519 | 27022 ft | 427 kts | 152° |
| 2026-04-27 23:55 | 41.96893 | 130.11462 | 27024 ft | 427 kts | 152° |
| 2026-04-27 23:56 | 41.94303 | 130.13406 | 27022 ft | 427 kts | 152° |
| 2026-04-27 23:56 | 41.91703 | 130.15348 | 27023 ft | 427 kts | 153° |
| 2026-04-27 23:56 | 41.89110 | 130.17291 | 27018 ft | 427 kts | 153° |
| 2026-04-27 23:56 | 41.86509 | 130.19231 | 27018 ft | 428 kts | 153° |
| 2026-04-27 23:57 | 41.83904 | 130.21177 | 27017 ft | 428 kts | 153° |
| 2026-04-27 23:57 | 41.81300 | 130.23119 | 27014 ft | 429 kts | 153° |
| 2026-04-27 23:57 | 41.78695 | 130.25058 | 27016 ft | 429 kts | 153° |
| 2026-04-27 23:57 | 41.76084 | 130.27004 | 27013 ft | 429 kts | 153° |
| 2026-04-27 23:58 | 41.73470 | 130.28944 | 27010 ft | 430 kts | 153° |
| 2026-04-27 23:58 | 41.70857 | 130.30890 | 27012 ft | 430 kts | 153° |
| 2026-04-27 23:58 | 41.68241 | 130.32826 | 27013 ft | 430 kts | 153° |
| 2026-04-27 23:58 | 41.65622 | 130.34771 | 27011 ft | 431 kts | 154° |
| 2026-04-27 23:59 | 41.62999 | 130.36711 | 27009 ft | 431 kts | 154° |
| 2026-04-27 23:59 | 41.60374 | 130.38655 | 27007 ft | 432 kts | 154° |
| 2026-04-27 23:59 | 41.57745 | 130.40598 | 27008 ft | 432 kts | 154° |
| 2026-04-27 23:59 | 41.55117 | 130.42538 | 27008 ft | 432 kts | 154° |
| 2026-04-28 00:00 | 41.52483 | 130.44483 | 27006 ft | 433 kts | 154° |
| 2026-04-28 00:00 | 41.49845 | 130.46425 | 27008 ft | 433 kts | 154° |
| 2026-04-28 00:00 | 41.47242 | 130.48346 | 27003 ft | 434 kts | 154° |
| 2026-04-28 00:00 | 41.44598 | 130.50287 | 27005 ft | 434 kts | 155° |
| 2026-04-28 00:01 | 41.41956 | 130.52233 | 27004 ft | 434 kts | 155° |
| 2026-04-28 00:01 | 41.39306 | 130.54175 | 26997 ft | 435 kts | 155° |
| 2026-04-28 00:01 | 41.36652 | 130.56125 | 26999 ft | 435 kts | 155° |
| 2026-04-28 00:01 | 41.33994 | 130.58072 | 26997 ft | 436 kts | 155° |
| 2026-04-28 00:02 | 41.31337 | 130.60018 | 26997 ft | 436 kts | 155° |
| 2026-04-28 00:02 | 41.28677 | 130.61965 | 26995 ft | 437 kts | 155° |
| 2026-04-28 00:02 | 41.26013 | 130.63910 | 26997 ft | 437 kts | 156° |
| 2026-04-28 00:02 | 41.23346 | 130.65861 | 26998 ft | 437 kts | 156° |
| 2026-04-28 00:03 | 41.20677 | 130.67805 | 26991 ft | 438 kts | 156° |
| 2026-04-28 00:03 | 41.18008 | 130.69754 | 26986 ft | 438 kts | 156° |
| 2026-04-28 00:03 | 41.15335 | 130.71697 | 26997 ft | 438 kts | 156° |
| 2026-04-28 00:03 | 41.12660 | 130.73645 | 26992 ft | 439 kts | 156° |
| 2026-04-28 00:04 | 41.09983 | 130.75589 | 26991 ft | 439 kts | 156° |
| 2026-04-28 00:04 | 41.04627 | 130.79478 | 26989 ft | 439 kts | 156° |
| 2026-04-28 00:04 | 41.01942 | 130.81422 | 26990 ft | 439 kts | 157° |
| 2026-04-28 00:05 | 40.99256 | 130.83370 | 26988 ft | 440 kts | 157° |
| 2026-04-28 00:05 | 40.96609 | 130.85282 | 26988 ft | 440 kts | 157° |
| 2026-04-28 00:05 | 40.93886 | 130.87253 | 26990 ft | 440 kts | 157° |
| 2026-04-28 00:05 | 40.92102 | 130.88538 | 26989 ft | 440 kts | 157° |
| 2026-04-28 00:06 | 40.88540 | 130.91111 | 26981 ft | 441 kts | 157° |
| 2026-04-28 00:06 | 40.85846 | 130.93051 | 26983 ft | 441 kts | 157° |
| 2026-04-28 00:06 | 40.83150 | 130.94993 | 26984 ft | 441 kts | 158° |
| 2026-04-28 00:06 | 40.80453 | 130.96934 | 26980 ft | 442 kts | 157° |
| 2026-04-28 00:07 | 40.77751 | 130.98875 | 26978 ft | 442 kts | 158° |
| 2026-04-28 00:07 | 40.75047 | 131.00818 | 26978 ft | 442 kts | 158° |
| 2026-04-28 00:07 | 40.72343 | 131.02755 | 26977 ft | 442 kts | 158° |
| 2026-04-28 00:07 | 40.69639 | 131.04697 | 26977 ft | 443 kts | 158° |
| 2026-04-28 00:08 | 40.66931 | 131.06632 | 26975 ft | 443 kts | 158° |
| 2026-04-28 00:08 | 40.64223 | 131.08573 | 26974 ft | 443 kts | 159° |
| 2026-04-28 00:08 | 40.61512 | 131.10508 | 26974 ft | 443 kts | 159° |
| 2026-04-28 00:08 | 40.58801 | 131.12445 | 26973 ft | 443 kts | 159° |
| 2026-04-28 00:09 | 40.56088 | 131.14380 | 26971 ft | 444 kts | 159° |
| 2026-04-28 00:09 | 40.53370 | 131.16316 | 26971 ft | 444 kts | 160° |
| 2026-04-28 00:09 | 40.50653 | 131.18253 | 26968 ft | 444 kts | 160° |
| 2026-04-28 00:09 | 40.47940 | 131.20180 | 26972 ft | 444 kts | 160° |
| 2026-04-28 00:10 | 40.45224 | 131.22114 | 26972 ft | 444 kts | 160° |
| 2026-04-28 00:10 | 40.42539 | 131.24017 | 26970 ft | 444 kts | 161° |
| 2026-04-28 00:10 | 40.39821 | 131.25949 | 26968 ft | 444 kts | 161° |
| 2026-04-28 00:10 | 40.37103 | 131.27872 | 26969 ft | 444 kts | 161° |
| 2026-04-28 00:11 | 40.34380 | 131.29803 | 26964 ft | 444 kts | 161° |
| 2026-04-28 00:11 | 40.32542 | 131.31101 | 26966 ft | 445 kts | 161° |
| 2026-04-28 00:11 | 40.28935 | 131.33652 | 26968 ft | 445 kts | 162° |
| 2026-04-28 00:11 | 40.26215 | 131.35574 | 26965 ft | 445 kts | 161° |
| 2026-04-28 00:12 | 40.23489 | 131.37495 | 26963 ft | 445 kts | 162° |
| 2026-04-28 00:12 | 40.20761 | 131.39420 | 26968 ft | 445 kts | 162° |
| 2026-04-28 00:12 | 40.18033 | 131.41338 | 26964 ft | 445 kts | 162° |
| 2026-04-28 00:12 | 40.15309 | 131.43259 | 26958 ft | 445 kts | 162° |
| 2026-04-28 00:13 | 40.12578 | 131.45175 | 26960 ft | 446 kts | 163° |
| 2026-04-28 00:13 | 40.09848 | 131.47095 | 26960 ft | 446 kts | 163° |
| 2026-04-28 00:13 | 40.07103 | 131.49019 | 26959 ft | 446 kts | 163° |
| 2026-04-28 00:13 | 40.04372 | 131.50934 | 26957 ft | 446 kts | 163° |
| 2026-04-28 00:14 | 40.01636 | 131.52851 | 26952 ft | 447 kts | 163° |
| 2026-04-28 00:14 | 39.98898 | 131.54766 | 26954 ft | 447 kts | 163° |
| 2026-04-28 00:14 | 39.96157 | 131.56683 | 26952 ft | 447 kts | 163° |
| 2026-04-28 00:14 | 39.93417 | 131.58594 | 26949 ft | 447 kts | 164° |
| 2026-04-28 00:15 | 39.90673 | 131.60513 | 26950 ft | 448 kts | 164° |
| 2026-04-28 00:15 | 39.87926 | 131.62424 | 26950 ft | 448 kts | 164° |
| 2026-04-28 00:15 | 39.85211 | 131.64318 | 26950 ft | 448 kts | 165° |
| 2026-04-28 00:15 | 39.82461 | 131.66230 | 26945 ft | 448 kts | 165° |
| 2026-04-28 00:16 | 39.79710 | 131.68144 | 26945 ft | 448 kts | 165° |
| 2026-04-28 00:16 | 39.76958 | 131.70056 | 26942 ft | 449 kts | 165° |
| 2026-04-28 00:16 | 39.74208 | 131.71963 | 26939 ft | 448 kts | 165° |
| 2026-04-28 00:16 | 39.71455 | 131.73874 | 26939 ft | 449 kts | 165° |
| 2026-04-28 00:17 | 39.68699 | 131.75780 | 26935 ft | 449 kts | 165° |
| 2026-04-28 00:17 | 39.65942 | 131.77691 | 26932 ft | 449 kts | 165° |
| 2026-04-28 00:17 | 39.63179 | 131.79598 | 26930 ft | 450 kts | 165° |
| 2026-04-28 00:17 | 39.60411 | 131.81513 | 26928 ft | 451 kts | 165° |
| 2026-04-28 00:18 | 39.57645 | 131.83423 | 26929 ft | 451 kts | 166° |
| 2026-04-28 00:18 | 39.54876 | 131.85331 | 26925 ft | 451 kts | 166° |
| 2026-04-28 00:18 | 39.52106 | 131.87242 | 26925 ft | 450 kts | 166° |
| 2026-04-28 00:18 | 39.49341 | 131.89141 | 26921 ft | 451 kts | 166° |
| 2026-04-28 00:19 | 39.46574 | 131.91048 | 26918 ft | 450 kts | 166° |
| 2026-04-28 00:19 | 39.43805 | 131.92947 | 26916 ft | 451 kts | 166° |
| 2026-04-28 00:19 | 39.41036 | 131.94850 | 26918 ft | 450 kts | 167° |
| 2026-04-28 00:19 | 39.38264 | 131.96751 | 26919 ft | 451 kts | 167° |
| 2026-04-28 00:20 | 39.35497 | 131.98646 | 26914 ft | 450 kts | 167° |
| 2026-04-28 00:20 | 39.32720 | 132.00548 | 26917 ft | 451 kts | 167° |
| 2026-04-28 00:20 | 39.29985 | 132.02417 | 26917 ft | 451 kts | 167° |
| 2026-04-28 00:20 | 39.28115 | 132.03696 | 26917 ft | 451 kts | 167° |
| 2026-04-28 00:21 | 39.25340 | 132.05591 | 26916 ft | 451 kts | 167° |
| 2026-04-28 00:21 | 39.22564 | 132.07486 | 26918 ft | 452 kts | 167° |
| 2026-04-28 00:21 | 39.18883 | 132.09993 | 26914 ft | 452 kts | 167° |
| 2026-04-28 00:21 | 39.16102 | 132.11889 | 26915 ft | 452 kts | 167° |
| 2026-04-28 00:22 | 39.14223 | 132.13165 | 26914 ft | 452 kts | 167° |
| 2026-04-28 00:22 | 39.11442 | 132.15059 | 26911 ft | 453 kts | 167° |
| 2026-04-28 00:22 | 39.08682 | 132.16930 | 26910 ft | 453 kts | 167° |
| 2026-04-28 00:22 | 39.05898 | 132.18823 | 26914 ft | 453 kts | 167° |
| 2026-04-28 00:23 | 39.03108 | 132.20714 | 26906 ft | 453 kts | 167° |
| 2026-04-28 00:23 | 39.00316 | 132.22604 | 26909 ft | 453 kts | 167° |
| 2026-04-28 00:23 | 38.97527 | 132.24493 | 26904 ft | 454 kts | 167° |
| 2026-04-28 00:23 | 38.94731 | 132.26383 | 26903 ft | 454 kts | 167° |
| 2026-04-28 00:24 | 38.91939 | 132.28271 | 26905 ft | 454 kts | 167° |
| 2026-04-28 00:24 | 38.89139 | 132.30158 | 26905 ft | 454 kts | 167° |
| 2026-04-28 00:24 | 38.86341 | 132.32048 | 26900 ft | 454 kts | 167° |
| 2026-04-28 00:24 | 38.82597 | 132.34569 | 26899 ft | 455 kts | 167° |
| 2026-04-28 00:25 | 38.80743 | 132.35818 | 26902 ft | 455 kts | 167° |
| 2026-04-28 00:25 | 38.77939 | 132.37702 | 26901 ft | 455 kts | 167° |
| 2026-04-28 00:25 | 38.75136 | 132.39587 | 26899 ft | 455 kts | 167° |
| 2026-04-28 00:25 | 38.72325 | 132.41474 | 26901 ft | 456 kts | 167° |
| 2026-04-28 00:26 | 38.69509 | 132.43362 | 26897 ft | 456 kts | 167° |
| 2026-04-28 00:26 | 38.66701 | 132.45246 | 26900 ft | 456 kts | 167° |
| 2026-04-28 00:26 | 38.63866 | 132.46999 | 26891 ft | 441 kts | 175° |
| 2026-04-28 00:26 | 38.60989 | 132.47981 | 26896 ft | 419 kts | 185° |
| 2026-04-28 00:27 | 38.58127 | 132.48559 | 26895 ft | 416 kts | 187° |
| 2026-04-28 00:27 | 38.55265 | 132.49116 | 26896 ft | 416 kts | 187° |
| 2026-04-28 00:27 | 38.52399 | 132.49685 | 26895 ft | 417 kts | 187° |
| 2026-04-28 00:27 | 38.49528 | 132.50265 | 26894 ft | 417 kts | 187° |
| 2026-04-28 00:28 | 38.46692 | 132.50840 | 26897 ft | 418 kts | 187° |
| 2026-04-28 00:28 | 38.43821 | 132.51408 | 26899 ft | 418 kts | 187° |
| 2026-04-28 00:28 | 38.40951 | 132.51981 | 26891 ft | 418 kts | 187° |
| 2026-04-28 00:28 | 38.38073 | 132.52554 | 26890 ft | 418 kts | 187° |
| 2026-04-28 00:29 | 38.35201 | 132.53129 | 26887 ft | 418 kts | 187° |
| 2026-04-28 00:29 | 38.32321 | 132.53702 | 26886 ft | 419 kts | 187° |
| 2026-04-28 00:29 | 38.29447 | 132.54273 | 26883 ft | 418 kts | 187° |
| 2026-04-28 00:29 | 38.26569 | 132.54846 | 26883 ft | 419 kts | 187° |
| 2026-04-28 00:30 | 38.23688 | 132.55417 | 26886 ft | 419 kts | 187° |
| 2026-04-28 00:30 | 38.20813 | 132.55991 | 26888 ft | 419 kts | 187° |
| 2026-04-28 00:30 | 38.17934 | 132.56559 | 26884 ft | 419 kts | 187° |
| 2026-04-28 00:30 | 38.15055 | 132.57132 | 26882 ft | 419 kts | 187° |
| 2026-04-28 00:31 | 38.12178 | 132.57700 | 26883 ft | 419 kts | 186° |
| 2026-04-28 00:31 | 38.09292 | 132.58273 | 26885 ft | 419 kts | 187° |
| 2026-04-28 00:31 | 38.06414 | 132.58841 | 26883 ft | 419 kts | 186° |
| 2026-04-28 00:31 | 38.03533 | 132.59410 | 26880 ft | 419 kts | 186° |
| 2026-04-28 00:32 | 38.00651 | 132.59981 | 26884 ft | 419 kts | 186° |
| 2026-04-28 00:32 | 37.97768 | 132.60547 | 26880 ft | 419 kts | 186° |
| 2026-04-28 00:32 | 37.94883 | 132.61119 | 26878 ft | 420 kts | 186° |
| 2026-04-28 00:32 | 37.91997 | 132.61690 | 26879 ft | 420 kts | 186° |
| 2026-04-28 00:33 | 37.89106 | 132.62267 | 26881 ft | 420 kts | 186° |
| 2026-04-28 00:33 | 37.86218 | 132.62837 | 26879 ft | 420 kts | 186° |
| 2026-04-28 00:33 | 37.83332 | 132.63408 | 26881 ft | 420 kts | 186° |
| 2026-04-28 00:33 | 37.80474 | 132.63973 | 26879 ft | 421 kts | 186° |
| 2026-04-28 00:34 | 37.77579 | 132.64545 | 26878 ft | 421 kts | 186° |
| 2026-04-28 00:34 | 37.74686 | 132.65118 | 26877 ft | 421 kts | 186° |
| 2026-04-28 00:34 | 37.71795 | 132.65685 | 26879 ft | 421 kts | 186° |
| 2026-04-28 00:34 | 37.68898 | 132.66259 | 26881 ft | 421 kts | 186° |
| 2026-04-28 00:35 | 37.65996 | 132.66827 | 26879 ft | 422 kts | 186° |
| 2026-04-28 00:35 | 37.63101 | 132.67400 | 26877 ft | 422 kts | 186° |
| 2026-04-28 00:35 | 37.62403 | 132.67538 | 26885 ft | 416 kts | 186° |
| 2026-04-28 00:35 | 37.59538 | 132.68101 | 26877 ft | 418 kts | 186° |
| 2026-04-28 00:36 | 37.56654 | 132.68658 | 26881 ft | 419 kts | 186° |
| 2026-04-28 00:36 | 37.53770 | 132.69225 | 26880 ft | 420 kts | 186° |
| 2026-04-28 00:36 | 37.50877 | 132.69793 | 26880 ft | 421 kts | 186° |
| 2026-04-28 00:36 | 37.47974 | 132.70362 | 26883 ft | 422 kts | 186° |
| 2026-04-28 00:37 | 37.45070 | 132.70929 | 26884 ft | 423 kts | 186° |
| 2026-04-28 00:37 | 37.42201 | 132.71487 | 26880 ft | 423 kts | 186° |
| 2026-04-28 00:37 | 37.39291 | 132.72058 | 26881 ft | 423 kts | 186° |
| 2026-04-28 00:37 | 37.36379 | 132.72623 | 26885 ft | 424 kts | 186° |
| 2026-04-28 00:38 | 37.33462 | 132.73194 | 26885 ft | 424 kts | 186° |
| 2026-04-28 00:38 | 37.30552 | 132.73758 | 26880 ft | 424 kts | 185° |
| 2026-04-28 00:38 | 37.27637 | 132.74350 | 26889 ft | 425 kts | 185° |
| 2026-04-28 00:38 | 37.24720 | 132.74969 | 26882 ft | 425 kts | 185° |
| 2026-04-28 00:39 | 37.21802 | 132.75576 | 26887 ft | 424 kts | 185° |
| 2026-04-28 00:39 | 37.18884 | 132.76167 | 26884 ft | 424 kts | 185° |
| 2026-04-28 00:39 | 37.15974 | 132.76760 | 26883 ft | 424 kts | 185° |
| 2026-04-28 00:39 | 37.13066 | 132.77357 | 26884 ft | 423 kts | 185° |
| 2026-04-28 00:40 | 37.10159 | 132.77958 | 26888 ft | 423 kts | 185° |
| 2026-04-28 00:40 | 37.07255 | 132.78549 | 26888 ft | 423 kts | 185° |
| 2026-04-28 00:40 | 37.04356 | 132.79143 | 26887 ft | 422 kts | 185° |
| 2026-04-28 00:40 | 37.01454 | 132.79734 | 26884 ft | 423 kts | 185° |
| 2026-04-28 00:41 | 36.98551 | 132.80329 | 26886 ft | 422 kts | 185° |
| 2026-04-28 00:41 | 36.95651 | 132.80921 | 26891 ft | 422 kts | 184° |
| 2026-04-28 00:41 | 36.92749 | 132.81511 | 26886 ft | 422 kts | 185° |
| 2026-04-28 00:41 | 36.89847 | 132.82104 | 26891 ft | 422 kts | 184° |
| 2026-04-28 00:42 | 36.86949 | 132.82692 | 26889 ft | 422 kts | 184° |
| 2026-04-28 00:42 | 36.84050 | 132.83284 | 26890 ft | 422 kts | 184° |
| 2026-04-28 00:42 | 36.81152 | 132.83871 | 26890 ft | 422 kts | 184° |
| 2026-04-28 00:42 | 36.78252 | 132.84462 | 26895 ft | 422 kts | 184° |
| 2026-04-28 00:43 | 36.75354 | 132.85049 | 26770 ft | 419 kts | 184° |
| 2026-04-28 00:43 | 36.72571 | 132.85630 | 26272 ft | 403 kts | 184° |
| 2026-04-28 00:43 | 36.69848 | 132.86185 | 25751 ft | 391 kts | 185° |
| 2026-04-28 00:43 | 36.67192 | 132.86713 | 25237 ft | 382 kts | 185° |
| 2026-04-28 00:44 | 36.64589 | 132.87228 | 24744 ft | 376 kts | 185° |
| 2026-04-28 00:44 | 36.62026 | 132.87746 | 24250 ft | 371 kts | 185° |
| 2026-04-28 00:44 | 36.59491 | 132.88259 | 23771 ft | 367 kts | 184° |
| 2026-04-28 00:44 | 36.56976 | 132.88763 | 23250 ft | 364 kts | 185° |
| 2026-04-28 00:45 | 36.54495 | 132.89265 | 22758 ft | 359 kts | 184° |
| 2026-04-28 00:45 | 36.52047 | 132.89756 | 22287 ft | 354 kts | 184° |
| 2026-04-28 00:45 | 36.49624 | 132.90245 | 21824 ft | 350 kts | 184° |
| 2026-04-28 00:45 | 36.47236 | 132.90720 | 21367 ft | 346 kts | 184° |
| 2026-04-28 00:46 | 36.44873 | 132.91197 | 20913 ft | 343 kts | 184° |
| 2026-04-28 00:46 | 36.42530 | 132.91665 | 20461 ft | 340 kts | 183° |
| 2026-04-28 00:46 | 36.40205 | 132.92132 | 20021 ft | 337 kts | 183° |
| 2026-04-28 00:46 | 36.37896 | 132.92593 | 19575 ft | 335 kts | 182° |
| 2026-04-28 00:47 | 36.35600 | 132.93052 | 19133 ft | 333 kts | 182° |
| 2026-04-28 00:47 | 36.33322 | 132.93510 | 18697 ft | 331 kts | 182° |
| 2026-04-28 00:47 | 36.31051 | 132.93961 | 18261 ft | 329 kts | 182° |
| 2026-04-28 00:47 | 36.28791 | 132.94417 | 17790 ft | 327 kts | 181° |
| 2026-04-28 00:48 | 36.26552 | 132.94861 | 17359 ft | 325 kts | 181° |
| 2026-04-28 00:48 | 36.24330 | 132.95308 | 16932 ft | 322 kts | 181° |
| 2026-04-28 00:48 | 36.22117 | 132.95746 | 16508 ft | 321 kts | 181° |
| 2026-04-28 00:48 | 36.19914 | 132.96187 | 16087 ft | 320 kts | 181° |
| 2026-04-28 00:49 | 36.17719 | 132.96623 | 15667 ft | 320 kts | 181° |
| 2026-04-28 00:49 | 36.15521 | 132.97061 | 15242 ft | 319 kts | 181° |
| 2026-04-28 00:49 | 36.13325 | 132.97499 | 14828 ft | 320 kts | 181° |
| 2026-04-28 00:49 | 36.11130 | 132.97933 | 14410 ft | 320 kts | 181° |
| 2026-04-28 00:50 | 36.08957 | 132.98367 | 13998 ft | 320 kts | 180° |
| 2026-04-28 00:50 | 36.06763 | 132.98806 | 13603 ft | 315 kts | 180° |
| 2026-04-28 00:50 | 36.04658 | 132.99232 | 13198 ft | 298 kts | 181° |
| 2026-04-28 00:50 | 36.02643 | 132.99635 | 12825 ft | 288 kts | 181° |
| 2026-04-28 00:51 | 36.00687 | 133.00016 | 12452 ft | 282 kts | 180° |
| 2026-04-28 00:51 | 35.98768 | 133.00394 | 12086 ft | 276 kts | 181° |
| 2026-04-28 00:51 | 35.96883 | 133.00768 | 11728 ft | 273 kts | 180° |
| 2026-04-28 00:51 | 35.95023 | 133.01134 | 11374 ft | 269 kts | 180° |
| 2026-04-28 00:52 | 35.93180 | 133.01502 | 11023 ft | 267 kts | 180° |
| 2026-04-28 00:52 | 35.91351 | 133.01860 | 10671 ft | 265 kts | 180° |
| 2026-04-28 00:52 | 35.89533 | 133.02221 | 10313 ft | 264 kts | 179° |
| 2026-04-28 00:52 | 35.87725 | 133.02578 | 9976 ft | 263 kts | 179° |
| 2026-04-28 00:53 | 35.85918 | 133.02934 | 9617 ft | 262 kts | 179° |
| 2026-04-28 00:53 | 35.84121 | 133.03292 | 9263 ft | 261 kts | 179° |
| 2026-04-28 00:53 | 35.82334 | 133.03642 | 8918 ft | 259 kts | 179° |
| 2026-04-28 00:53 | 35.80557 | 133.03997 | 8575 ft | 258 kts | 178° |
| 2026-04-28 00:54 | 35.78787 | 133.04342 | 8236 ft | 257 kts | 178° |
| 2026-04-28 00:54 | 35.77022 | 133.04692 | 7899 ft | 256 kts | 178° |
| 2026-04-28 00:54 | 35.75263 | 133.05038 | 7559 ft | 256 kts | 178° |
| 2026-04-28 00:54 | 35.73529 | 133.05379 | 7227 ft | 255 kts | 178° |
| 2026-04-28 00:55 | 35.71775 | 133.05727 | 6893 ft | 252 kts | 177° |
| 2026-04-28 00:55 | 35.70074 | 133.06063 | 6562 ft | 244 kts | 178° |
| 2026-04-28 00:55 | 35.68424 | 133.06389 | 6242 ft | 237 kts | 178° |
| 2026-04-28 00:55 | 35.66815 | 133.06707 | 5925 ft | 231 kts | 178° |
| 2026-04-28 00:56 | 35.65243 | 133.07012 | 5620 ft | 227 kts | 177° |
| 2026-04-28 00:56 | 35.63693 | 133.07317 | 5323 ft | 224 kts | 178° |
| 2026-04-28 00:56 | 35.62166 | 133.07617 | 5029 ft | 221 kts | 178° |
| 2026-04-28 00:56 | 35.60648 | 133.07913 | 4739 ft | 220 kts | 178° |
| 2026-04-28 00:57 | 35.59138 | 133.08212 | 4441 ft | 219 kts | 178° |
| 2026-04-28 00:57 | 35.57640 | 133.08504 | 4154 ft | 217 kts | 178° |
| 2026-04-28 00:57 | 35.56145 | 133.08800 | 3856 ft | 218 kts | 178° |
| 2026-04-28 00:57 | 35.54651 | 133.09087 | 3575 ft | 218 kts | 177° |
| 2026-04-28 00:58 | 35.53186 | 133.08987 | 3272 ft | 207 kts | 201° |
| 2026-04-28 00:58 | 35.51926 | 133.08194 | 3008 ft | 203 kts | 220° |
| 2026-04-28 00:58 | 35.50890 | 133.07108 | 2751 ft | 187 kts | 221° |
| 2026-04-28 00:58 | 35.49892 | 133.06101 | 2512 ft | 188 kts | 221° |
| 2026-04-28 00:59 | 35.49081 | 133.04981 | 2399 ft | 166 kts | 239° |
| 2026-04-28 00:59 | 35.48540 | 133.03825 | 2264 ft | 147 kts | 237° |
| 2026-04-28 00:59 | 35.48084 | 133.02894 | 2173 ft | 111 kts | 239° |
| 2026-04-28 00:59 | 35.47722 | 133.02143 | 2048 ft | 96 kts | 239° |
| 2026-04-28 01:00 | 35.47388 | 133.01442 | 1954 ft | 94 kts | 237° |
| 2026-04-28 01:00 | 35.47056 | 133.00768 | 1872 ft | 89 kts | 239° |
| 2026-04-28 01:00 | 35.46746 | 133.00135 | 1801 ft | 86 kts | 238° |
| 2026-04-28 01:00 | 35.46450 | 132.99509 | 1748 ft | 83 kts | 237° |
| 2026-04-28 01:01 | 35.46163 | 132.98909 | 1741 ft | 81 kts | 239° |
| 2026-04-28 01:01 | 35.45871 | 132.98321 | 1745 ft | 82 kts | 240° |
| 2026-04-28 01:01 | 35.45576 | 132.97713 | 1747 ft | 85 kts | 237° |
| 2026-04-28 01:01 | 35.45277 | 132.97079 | 1750 ft | 87 kts | 238° |
| 2026-04-28 01:02 | 35.44969 | 132.96441 | 1750 ft | 87 kts | 239° |
| 2026-04-28 01:02 | 35.44639 | 132.95776 | 1612 ft | 94 kts | 238° |
| 2026-04-28 01:02 | 35.44303 | 132.95072 | 1443 ft | 98 kts | 238° |
| 2026-04-28 01:02 | 35.43953 | 132.94343 | 1258 ft | 101 kts | 238° |
| 2026-04-28 01:03 | 35.43595 | 132.93605 | 1063 ft | 98 kts | 240° |
| 2026-04-28 01:03 | 35.43252 | 132.92895 | 862 ft | 97 kts | 238° |
| 2026-04-28 01:03 | 35.42907 | 132.92175 | 647 ft | 99 kts | 237° |
| 2026-04-28 01:03 | 35.42560 | 132.91398 | 424 ft | 104 kts | 238° |
| 2026-04-28 01:04 | 35.42174 | 132.90691 | 162 ft | 95 kts | 236° |
| 2026-04-28 01:04 | 35.41848 | 132.89982 | 44 ft | 93 kts | 239° |
| 2026-04-28 01:04 | 35.41570 | 132.89410 | 16 ft | 45 kts | 240° |
| 2026-04-28 01:04 | 35.41471 | 132.89200 | 14 ft | 19 kts | 240° |
| 2026-04-28 01:05 | 35.41402 | 132.89057 | 12 ft | 20 kts | 239° |
| 2026-04-28 01:05 | 35.41344 | 132.88937 | 11 ft | 14 kts | 245° |
| 2026-04-28 01:05 | 35.41376 | 132.88858 | 12 ft | 7 kts | 326° |
| 2026-04-28 01:05 | 35.41413 | 132.88818 | 13 ft | 8 kts | 285° |
| 2026-04-28 01:06 | 35.41399 | 132.88752 | 13 ft | 5 kts | 252° |
| 2026-04-28 01:06 | 35.41399 | 132.88703 | 13 ft | 7 kts | 294° |
| 2026-04-28 01:06 | 35.41441 | 132.88666 | 12 ft | 7 kts | 328° |
| 2026-04-28 01:06 | 35.41445 | 132.88663 | 12 ft | 0 kts | 328° |